Create Tblcommutelog Verified Points Advance Search
| # | Trip ID | Id Commuter | Trip Date | Trip Num | Current Lat | Current Lng | Delta Distance | Current Time | Activity | Activity Confidence | Current Speed | |
|---|---|---|---|---|---|---|---|---|---|---|---|---|
| 70241 | 251205_779681_16501156_0657 | 779681 | (not set) | (not set) | 38.973146693588 | -76.843290191292 | 11.0229 | 2025-12-05 07:10:48 | in_vehicle | 100 | 0.067055888848159 | |
| 70242 | 251205_786078_16514445_0707 | 786078 | (not set) | (not set) | 39.351404445933 | -76.534638166 | 0.9075 | 2025-12-05 07:11:03 | in_vehicle | 100 | 0 | |
| 70243 | 251205_784252_16652453_0652 | 784252 | (not set) | (not set) | 39.407887496083 | -77.43557662586 | 4.1497 | 2025-12-05 07:11:22 | in_vehicle | 100 | 8.1092921580373 | |
| 70244 | 251205_789037_16497608_0654 | 789037 | (not set) | (not set) | 38.879170032975 | -76.720615275848 | 11.2587 | 2025-12-05 07:11:41 | in_vehicle | 100 | 10.599300830599 | |
| 70245 | 251205_784875_16514072_0626 | 784875 | (not set) | (not set) | 39.101171755066 | -77.154689100242 | 19.0716 | 2025-12-05 07:12:00 | in_vehicle | 100 | 9.504054646079 | |
| 70246 | 251205_788537_16416993_0655 | 788537 | (not set) | (not set) | 39.129093886816 | -76.696195332522 | 5.5449 | 2025-12-05 07:12:14 | in_vehicle | 100 | 6.3971317961143 | |
| 70247 | 251205_714319_16514952_0642 | 714319 | (not set) | (not set) | 38.892086643614 | -77.044463671498 | 20.3628 | 2025-12-05 07:12:28 | in_vehicle | 100 | 5.1185995154094 | |
| 70248 | 251205_786078_16514445_0707 | 786078 | (not set) | (not set) | 39.355555612785 | -76.538854139406 | 1.291 | 2025-12-05 07:12:43 | in_vehicle | 100 | 2.8208177242125 | |
| 70249 | 251205_772259_16460160_0652 | 772259 | (not set) | (not set) | 38.9856399 | -77.036403651716 | 8.5079 | 2025-12-05 07:13:03 | in_vehicle | 100 | 5.2214185449766 | |
| 70250 | 251205_779681_16501156_0657 | 779681 | (not set) | (not set) | 38.96388773675 | -76.858201095386 | 12.0594 | 2025-12-05 07:13:18 | in_vehicle | 100 | 11.019517734047 | |
| 70251 | 251205_789037_16497608_0654 | 789037 | (not set) | (not set) | 38.854226718554 | -76.726025879403 | 13.0082 | 2025-12-05 07:13:34 | in_vehicle | 100 | 10.492011408442 | |
| 70252 | 251205_786079_16514446_0713 | 786079 | (not set) | (not set) | 39.355441051727 | -76.539820933915 | 0 | 2025-12-05 07:13:53 | unknown | 100 | 2.405071213354 | |
| 70253 | 251205_746083_16423284_0636 | 746083 | (not set) | (not set) | 38.873228248791 | -77.039728906616 | 18.4951 | 2025-12-05 07:14:03 | unknown | 100 | 7.4208516991962 | |
| 70254 | 251205_779681_16501156_0657 | 779681 | (not set) | (not set) | 38.952465451714 | -76.868181095103 | 13.0168 | 2025-12-05 07:14:19 | in_vehicle | 100 | 8.7217359428505 | |
| 70255 | 251205_787531_16428992_0714 | 787531 | (not set) | (not set) | 39.2893365 | -76.5844425 | 0 | 2025-12-05 07:14:31 | walking | 100 | 0 | |
| 70256 | 251205_784875_16514072_0626 | 784875 | (not set) | (not set) | 39.084573797775 | -77.146844519368 | 20.3067 | 2025-12-05 07:14:48 | in_vehicle | 100 | -0.44703925898772 | |
| 70257 | 251205_789883_16514514_0636 | 789883 | (not set) | (not set) | 39.011006748336 | -76.910806923903 | 9.7027 | 2025-12-05 07:14:55 | on_foot | 100 | -0.44703925898772 | |
| 70258 | 251205_786078_16514445_0707 | 786078 | (not set) | (not set) | 39.352581662813 | -76.542774067623 | 1.5979 | 2025-12-05 07:15:19 | on_foot | 66 | 6.5670067145297 | |
| 70259 | 251205_753586_16500033_0715 | 753586 | (not set) | (not set) | 38.893731080024 | -76.985918064496 | 0 | 2025-12-05 07:15:31 | still | 33 | 0 | |
| 70260 | 251205_788116_16505268_0629 | 788116 | (not set) | (not set) | 38.790349345578 | -77.174083113672 | 36.2557 | 2025-12-05 07:15:46 | unknown | 100 | 11.211744615412 |